Esbjerg Airport


Codes: EKEB/EBJ
Name: Esbjerg Airport
City: Esbjerg
Country: Denmark
Elevation: 97 ft.
Wikipedia:

Photos at Esbjerg Airport


   Photos courtesy of SpottingLog. You can add your own sightings and photos by signing up for a free trial today.



No photos found.

Weather at Esbjerg Airport


Time (UTC)DescriptionTempratureWindCloud coverageVisibilityPressureHumidity
21-Feb-2024 03:00Light Rain7°C20 mph, W75%10000m1010hPa99%
21-Feb-2024 06:00Broken Clouds6°C16 mph, W67%10000m1010hPa95%
21-Feb-2024 09:00Scattered Clouds6°C11 mph, SW48%10000m1011hPa91%
21-Feb-2024 12:00Broken Clouds6°C13 mph, SW68%10000m1009hPa81%
21-Feb-2024 15:00Overcast Clouds6°C16 mph, S100%1268m1006hPa97%
21-Feb-2024 18:00Light Rain6°C18 mph, S100%10000m1002hPa95%
21-Feb-2024 21:00Light Rain6°C25 mph, S100%10000m998hPa95%
22-Feb-2024 00:00Light Rain6°C22 mph, S100%7868m996hPa96%
22-Feb-2024 03:00Light Rain6°C16 mph, S100%246m993hPa98%
22-Feb-2024 06:00Overcast Clouds6°C9 mph, SW100%199m992hPa99%
22-Feb-2024 09:00Overcast Clouds6°C11 mph, SW100%10000m992hPa90%
22-Feb-2024 12:00Overcast Clouds8°C16 mph, S87%9456m989hPa89%
22-Feb-2024 15:00Scattered Clouds8°C18 mph, SE38%10000m983hPa84%
22-Feb-2024 18:00Light Rain9°C22 mph, SE56%10000m977hPa87%
22-Feb-2024 21:00Moderate Rain9°C34 mph, S100%7256m972hPa93%
23-Feb-2024 00:00Light Rain3°C31 mph, W100%10000m976hPa94%
23-Feb-2024 03:00Broken Clouds4°C29 mph, SW70%10000m982hPa79%
23-Feb-2024 06:00Light Rain4°C27 mph, SW38%10000m984hPa83%
23-Feb-2024 09:00Light Rain5°C25 mph, SW80%10000m988hPa80%
23-Feb-2024 12:00Light Rain5°C22 mph, SW62%10000m991hPa85%
23-Feb-2024 15:00Light Rain4°C22 mph, S99%10000m991hPa89%
23-Feb-2024 18:00Light Rain5°C22 mph, SW97%10000m993hPa85%
23-Feb-2024 21:00Light Rain4°C13 mph, S50%10000m995hPa89%
24-Feb-2024 00:00Scattered Clouds3°C11 mph, S37%10000m995hPa93%
24-Feb-2024 03:00Overcast Clouds3°C11 mph, SE99%10000m996hPa90%
24-Feb-2024 06:00Overcast Clouds3°C11 mph, SE98%10000m996hPa89%
24-Feb-2024 09:00Scattered Clouds4°C11 mph, SE41%10000m997hPa85%
24-Feb-2024 12:00Broken Clouds5°C13 mph, S70%10000m997hPa80%
24-Feb-2024 15:00Overcast Clouds4°C16 mph, S100%10000m998hPa82%
24-Feb-2024 18:00Light Rain4°C11 mph, S100%10000m999hPa85%
24-Feb-2024 21:00Light Rain3°C13 mph, S64%10000m1001hPa88%
25-Feb-2024 00:00Broken Clouds3°C16 mph, S58%10000m1001hPa87%
25-Feb-2024 03:00Broken Clouds2°C13 mph, S73%10000m1002hPa91%
25-Feb-2024 06:00Overcast Clouds1°C11 mph, SE86%10000m1003hPa89%
25-Feb-2024 09:00Overcast Clouds3°C13 mph, SE100%10000m1004hPa83%
25-Feb-2024 12:00Light Rain4°C13 mph, SE100%1039m1003hPa94%
25-Feb-2024 15:00Light Rain5°C9 mph, SE100%10000m1004hPa86%
25-Feb-2024 18:00Light Rain4°C9 mph, SE99%10000m1004hPa91%
25-Feb-2024 21:00Light Rain4°C9 mph, SE94%10000m1005hPa91%
26-Feb-2024 00:00Broken Clouds2°C7 mph, SE69%10000m1005hPa94%